New Britain, Pennsylvania
Current Conditions -  °F | °C
As of 7:54 PM on Wednesday 17 Dec 2014 (Local Time) from KDYL Reporting Station
Overcast Overcast  
Wind Chill: 33°   Ceiling: 4800
Heat Index: 39°   Visibility: 10mi
Dew Point: 27°   Wind: 9mph
Humidity: 62%   Direction: 270°W
Pressure: 29.93"   Gusts: NA
Location:  40.3369°N, 75.1195°W
Report Text: KDYL 180054Z AUTO 27008KT 10SM OVC048 04/M03 A2993 RMK AO2 SLP142 T00391028
Loading
Personal Weather Stations






























Interactive Weather Map New forecast layout! Learn more

10-Day Weather Forecast

Advertisements
Track Severe Weather on mobile